createdAt,value
2018-09-26T00:01:02.141Z,6.20
2018-09-26T00:03:35.582Z,6.10
2018-09-26T00:06:03.700Z,6.00
2018-09-26T00:08:31.802Z,5.90
2018-09-26T00:10:59.897Z,5.70
2018-09-26T00:13:28.031Z,5.80
2018-09-26T00:15:56.102Z,6.00
2018-09-26T00:18:24.208Z,6.00
2018-09-26T00:20:52.320Z,5.80
2018-09-26T00:23:20.524Z,5.70
2018-09-26T00:25:48.592Z,5.60
2018-09-26T00:28:16.711Z,5.70
2018-09-26T00:30:44.802Z,5.70
2018-09-26T00:33:12.910Z,5.70
2018-09-26T00:35:41.102Z,5.60
2018-09-26T00:38:09.165Z,5.80
2018-09-26T00:40:37.260Z,5.80
2018-09-26T00:43:05.345Z,5.80
2018-09-26T00:45:33.423Z,5.70
2018-09-26T00:48:01.552Z,5.70
2018-09-26T00:50:29.623Z,5.90
2018-09-26T00:52:57.749Z,5.90
2018-09-26T00:55:26.793Z,6.00
2018-09-26T00:57:54.873Z,6.10
2018-09-26T01:00:22.952Z,6.00
2018-09-26T01:02:51.052Z,6.00
2018-09-26T01:05:19.122Z,6.00
2018-09-26T01:07:47.223Z,5.90
2018-09-26T01:10:15.305Z,5.90
2018-09-26T01:12:43.401Z,5.90
2018-09-26T01:15:11.502Z,6.00
2018-09-26T01:17:39.657Z,6.00
2018-09-26T01:20:08.185Z,5.90
2018-09-26T01:22:36.288Z,5.80
2018-09-26T01:25:04.380Z,5.60
2018-09-26T01:27:35.236Z,5.60
2018-09-26T01:30:04.952Z,5.70
2018-09-26T01:32:33.079Z,5.50
2018-09-26T01:35:01.394Z,5.50
2018-09-26T01:37:29.428Z,5.40
2018-09-26T01:39:57.878Z,5.50
2018-09-26T01:42:26.236Z,5.40
2018-09-26T01:44:54.408Z,5.40
2018-09-26T01:47:22.552Z,5.40
2018-09-26T01:49:50.632Z,5.30
2018-09-26T01:52:18.736Z,5.30
2018-09-26T01:54:46.821Z,5.10
2018-09-26T01:57:15.316Z,5.20
2018-09-26T01:59:43.397Z,5.30
2018-09-26T02:02:11.494Z,5.30
2018-09-26T02:04:39.607Z,5.40
2018-09-26T02:07:07.700Z,5.40
2018-09-26T02:09:35.787Z,5.20
2018-09-26T02:12:03.868Z,5.00
2018-09-26T02:14:31.974Z,5.10
2018-09-26T02:17:00.134Z,5.00
2018-09-26T02:19:28.211Z,4.90
2018-09-26T02:22:02.976Z,4.90
2018-09-26T02:24:31.112Z,4.80
2018-09-26T02:26:59.317Z,4.70
2018-09-26T02:29:27.988Z,4.90
2018-09-26T02:31:56.144Z,4.90
2018-09-26T02:34:24.217Z,4.90
2018-09-26T02:36:52.300Z,4.80
2018-09-26T02:39:20.453Z,4.70
2018-09-26T02:41:48.539Z,4.60
2018-09-26T02:44:16.710Z,4.40
2018-09-26T02:46:44.784Z,4.20
2018-09-26T02:49:12.869Z,4.20
2018-09-26T02:51:40.953Z,4.50
2018-09-26T02:54:09.041Z,4.60
2018-09-26T02:56:37.311Z,4.70
2018-09-26T02:59:06.677Z,4.60
2018-09-26T03:01:34.760Z,4.40
2018-09-26T03:04:02.860Z,4.30
2018-09-26T03:06:30.928Z,4.40
2018-09-26T03:08:59.004Z,4.40
2018-09-26T03:11:27.137Z,4.50
2018-09-26T03:13:55.160Z,4.50
2018-09-26T03:16:23.248Z,4.50
2018-09-26T03:18:51.327Z,4.30
2018-09-26T03:21:19.415Z,4.10
2018-09-26T03:23:47.507Z,4.20
2018-09-26T03:26:15.597Z,4.10
2018-09-26T03:28:43.691Z,4.20
2018-09-26T03:31:11.936Z,4.00
2018-09-26T03:33:40.057Z,3.90
2018-09-26T03:36:08.112Z,3.80
2018-09-26T03:38:36.200Z,4.10
2018-09-26T03:41:04.309Z,4.20
2018-09-26T03:43:32.417Z,4.30
2018-09-26T03:46:00.492Z,4.30
2018-09-26T03:48:28.582Z,4.60
2018-09-26T03:50:56.673Z,4.80
2018-09-26T03:53:24.769Z,4.70
2018-09-26T03:55:52.863Z,5.00
2018-09-26T03:58:21.053Z,4.70
2018-09-26T04:00:48.785Z,4.50
2018-09-26T04:03:16.856Z,4.30
2018-09-26T04:05:44.958Z,4.40
2018-09-26T04:08:13.041Z,4.20
2018-09-26T04:10:41.124Z,4.00
2018-09-26T04:13:09.243Z,3.90
2018-09-26T04:15:43.503Z,3.90
2018-09-26T04:18:11.745Z,4.00
2018-09-26T04:20:39.856Z,4.70
2018-09-26T04:23:07.925Z,4.70
2018-09-26T04:25:36.011Z,4.70
2018-09-26T04:28:04.125Z,4.60
2018-09-26T04:30:32.248Z,4.60
2018-09-26T04:33:00.463Z,4.60
2018-09-26T04:35:28.404Z,4.60
2018-09-26T04:37:56.521Z,4.40
2018-09-26T04:40:24.624Z,4.40
2018-09-26T04:42:52.766Z,4.20
2018-09-26T04:45:20.864Z,4.30
2018-09-26T04:47:48.949Z,4.10
2018-09-26T04:50:17.512Z,4.00
2018-09-26T04:52:45.804Z,4.10
2018-09-26T04:55:15.092Z,4.10
2018-09-26T04:57:43.188Z,4.00
2018-09-26T05:00:11.390Z,3.80
2018-09-26T05:02:39.484Z,3.70
2018-09-26T05:05:07.669Z,3.70
2018-09-26T05:07:36.099Z,3.50
2018-09-26T05:10:04.380Z,3.30
2018-09-26T05:12:32.467Z,3.20
2018-09-26T05:15:00.730Z,3.20
2018-09-26T05:17:28.820Z,3.10
2018-09-26T05:19:57.329Z,3.10
2018-09-26T05:22:25.912Z,3.10
2018-09-26T05:24:54.052Z,2.90
2018-09-26T05:27:22.188Z,2.80
2018-09-26T05:29:50.332Z,2.80
2018-09-26T05:32:18.404Z,2.90
2018-09-26T05:34:46.475Z,2.90
2018-09-26T05:37:14.858Z,3.00
2018-09-26T05:39:42.983Z,3.10
2018-09-26T05:42:11.072Z,3.10
2018-09-26T05:44:39.380Z,3.20
2018-09-26T05:47:08.128Z,3.30
2018-09-26T05:49:36.240Z,3.20
2018-09-26T05:52:04.654Z,3.30
2018-09-26T05:54:32.767Z,3.50
2018-09-26T05:57:01.900Z,3.70
2018-09-26T05:59:30.085Z,4.00
2018-09-26T06:01:58.121Z,4.20
2018-09-26T06:04:26.310Z,4.20
2018-09-26T06:06:54.500Z,4.40
2018-09-26T06:09:22.588Z,4.30
2018-09-26T06:11:50.676Z,4.70
2018-09-26T06:14:18.778Z,4.90
2018-09-26T06:16:46.844Z,5.30
2018-09-26T06:19:14.947Z,5.60
2018-09-26T06:21:43.139Z,5.70
2018-09-26T06:24:11.216Z,5.80
2018-09-26T06:26:39.303Z,6.00
2018-09-26T06:29:07.404Z,6.10
2018-09-26T06:31:35.560Z,6.10
2018-09-26T06:34:03.679Z,6.20
2018-09-26T06:36:31.789Z,6.20
2018-09-26T06:38:59.896Z,6.40
2018-09-26T06:41:27.980Z,6.70
2018-09-26T06:43:56.089Z,6.90
2018-09-26T15:10:52.152Z,19.30
2018-09-26T15:13:20.318Z,18.60
2018-09-26T15:15:48.444Z,18.50
2018-09-26T15:18:16.656Z,18.50
2018-09-26T15:20:44.861Z,18.40
2018-09-26T15:23:12.909Z,18.30
2018-09-26T15:25:41.040Z,18.20
2018-09-26T15:28:09.233Z,18.10
2018-09-26T15:30:37.340Z,18.00
2018-09-26T15:33:05.510Z,17.90
2018-09-26T15:35:33.734Z,17.90
2018-09-26T15:38:01.869Z,17.70
2018-09-26T15:40:30.060Z,17.70
2018-09-26T15:42:58.265Z,17.60
2018-09-26T15:45:26.420Z,17.60
2018-09-26T15:47:54.584Z,17.50
2018-09-26T15:50:22.904Z,17.50
2018-09-26T15:52:51.369Z,17.50
2018-09-26T15:55:19.543Z,17.40
2018-09-26T15:57:47.693Z,17.30
2018-09-26T16:00:15.956Z,17.20
2018-09-26T16:02:44.192Z,17.10
2018-09-26T16:05:12.287Z,17.10
2018-09-26T16:07:40.372Z,17.00
2018-09-26T16:10:08.506Z,17.00
2018-09-26T16:12:37.792Z,16.90
2018-09-26T16:15:05.901Z,16.80
2018-09-26T16:17:34.053Z,16.60
2018-09-26T16:20:02.176Z,16.50
2018-09-26T16:22:30.309Z,16.40
2018-09-26T16:24:58.451Z,16.20
2018-09-26T16:27:26.607Z,16.10
2018-09-26T16:29:54.712Z,16.00
2018-09-26T16:32:22.863Z,15.80
2018-09-26T16:34:50.936Z,15.70
2018-09-26T16:37:19.052Z,15.70
2018-09-26T16:39:47.145Z,15.60
2018-09-26T16:42:15.252Z,15.40
2018-09-26T16:44:43.303Z,15.40
2018-09-26T16:47:11.412Z,15.30
2018-09-26T16:49:39.533Z,15.20
2018-09-26T16:52:07.679Z,15.10
2018-09-26T16:54:35.776Z,14.90
2018-09-26T16:57:03.872Z,14.80
2018-09-26T16:59:31.953Z,14.60
2018-09-26T17:02:00.092Z,14.60
2018-09-26T17:04:28.180Z,14.60
2018-09-26T17:06:56.295Z,14.60
2018-09-26T17:09:24.433Z,14.60
2018-09-26T17:11:52.487Z,14.40
2018-09-26T17:14:20.199Z,14.20
2018-09-26T17:16:48.224Z,14.10
2018-09-26T17:19:16.370Z,13.90
2018-09-26T17:21:44.417Z,13.80
2018-09-26T17:24:12.559Z,13.70
2018-09-26T17:26:40.709Z,13.60
2018-09-26T17:29:08.796Z,13.60
2018-09-26T17:31:36.888Z,13.50
2018-09-26T17:34:05.047Z,13.60
2018-09-26T17:36:33.100Z,13.50
2018-09-26T17:39:01.188Z,13.40
2018-09-26T17:41:29.383Z,13.30
2018-09-26T17:43:57.519Z,13.30
2018-09-26T17:46:25.788Z,13.30
2018-09-26T17:48:53.781Z,13.30
2018-09-26T17:51:21.907Z,13.30
2018-09-26T17:53:49.981Z,13.40
2018-09-26T17:56:18.187Z,13.30
2018-09-26T17:58:46.257Z,13.30
2018-09-26T18:01:14.351Z,13.40
2018-09-26T18:03:42.436Z,13.30
2018-09-26T18:06:10.525Z,13.30
2018-09-26T18:08:38.810Z,13.10
2018-09-26T18:11:06.956Z,13.10
2018-09-26T18:13:35.031Z,13.10
2018-09-26T18:16:04.484Z,13.10
2018-09-26T18:18:32.693Z,13.00
2018-09-26T18:21:00.767Z,12.90
2018-09-26T18:23:28.945Z,12.80
2018-09-26T18:25:56.948Z,12.60
2018-09-26T18:28:25.041Z,12.50
2018-09-26T18:30:53.141Z,12.40
2018-09-26T18:33:21.318Z,12.20
2018-09-26T18:35:49.368Z,12.20
2018-09-26T18:38:17.493Z,12.00
2018-09-26T18:40:45.629Z,12.00
2018-09-26T18:43:13.924Z,11.90
2018-09-26T18:45:42.004Z,12.00
2018-09-26T18:48:10.193Z,12.10
2018-09-26T18:50:38.324Z,12.00
2018-09-26T18:53:06.544Z,11.90
2018-09-26T18:55:34.678Z,11.90
2018-09-26T18:58:02.759Z,11.90
2018-09-26T19:00:30.855Z,11.90
2018-09-26T19:02:59.257Z,12.00
2018-09-26T19:05:27.317Z,12.00
2018-09-26T19:07:55.865Z,11.90
2018-09-26T19:10:23.956Z,11.80
2018-09-26T19:12:52.059Z,11.60
2018-09-26T19:15:21.204Z,11.60
2018-09-26T19:17:48.808Z,11.50
2018-09-26T19:20:16.905Z,11.40
2018-09-26T19:22:45.112Z,11.30
2018-09-26T19:25:13.719Z,11.40
2018-09-26T19:27:41.804Z,11.30
2018-09-26T19:30:10.077Z,11.30
2018-09-26T19:32:38.173Z,11.20
2018-09-26T19:35:06.272Z,11.20
2018-09-26T19:37:34.367Z,11.10
2018-09-26T19:40:02.440Z,11.00
2018-09-26T19:42:30.521Z,11.00
2018-09-26T19:44:58.694Z,10.90
2018-09-26T19:47:26.972Z,10.90
2018-09-26T19:49:55.044Z,10.90
2018-09-26T19:52:23.124Z,10.80
2018-09-26T19:54:51.188Z,10.80
2018-09-26T19:57:20.270Z,10.80
2018-09-26T19:59:48.329Z,10.70
2018-09-26T20:02:16.405Z,10.70
2018-09-26T20:04:44.568Z,10.60
2018-09-26T20:07:12.660Z,10.60
2018-09-26T20:09:40.732Z,10.60
2018-09-26T20:12:08.805Z,10.50
2018-09-26T20:14:36.908Z,10.60
2018-09-26T20:17:05.005Z,10.70
2018-09-26T20:19:33.092Z,10.60
2018-09-26T20:22:01.273Z,10.40
2018-09-26T20:24:29.264Z,10.40
2018-09-26T20:26:57.516Z,10.30
2018-09-26T20:29:25.653Z,10.20
2018-09-26T20:31:53.601Z,10.10
2018-09-26T20:34:21.761Z,10.10
2018-09-26T20:36:49.831Z,10.00
2018-09-26T20:39:17.928Z,10.00
2018-09-26T20:41:46.008Z,10.00
2018-09-26T20:44:14.103Z,10.10
2018-09-26T20:46:42.222Z,10.20
2018-09-26T20:49:10.398Z,10.30
2018-09-26T20:51:38.478Z,10.30
2018-09-26T20:54:06.568Z,10.40
2018-09-26T20:56:34.708Z,10.60
2018-09-26T20:59:03.408Z,10.60
2018-09-26T21:01:31.576Z,10.70
2018-09-26T21:03:59.733Z,10.60
2018-09-26T21:06:27.871Z,10.60
2018-09-26T21:08:55.893Z,10.50
2018-09-26T21:11:23.976Z,10.50
2018-09-26T21:13:52.052Z,10.60
2018-09-26T21:16:20.151Z,10.50
2018-09-26T21:18:48.220Z,10.50
2018-09-26T21:21:16.367Z,10.50
2018-09-26T21:23:44.431Z,10.40
2018-09-26T21:26:12.509Z,10.40
2018-09-26T21:28:40.657Z,10.40
2018-09-26T21:31:08.812Z,10.30
2018-09-26T21:33:36.844Z,10.20
2018-09-26T21:36:05.958Z,10.20
2018-09-26T21:38:35.399Z,10.70
2018-09-26T21:41:03.933Z,11.00
2018-09-26T21:43:32.737Z,11.00
2018-09-26T21:46:01.960Z,10.90
2018-09-26T21:48:30.486Z,10.90
2018-09-26T21:51:00.151Z,10.80
2018-09-26T21:53:29.138Z,10.70
2018-09-26T21:55:57.775Z,10.50
2018-09-26T21:58:25.940Z,10.30
2018-09-26T22:00:59.073Z,10.00
2018-09-26T22:03:27.148Z,10.00
2018-09-26T22:05:55.229Z,10.00
2018-09-26T22:08:23.308Z,10.00
2018-09-26T22:10:51.705Z,10.00
2018-09-26T22:13:19.800Z,10.10
2018-09-26T22:15:47.920Z,10.00
2018-09-26T22:18:15.997Z,9.90
2018-09-26T22:20:44.084Z,10.00
2018-09-26T22:23:12.176Z,10.00
2018-09-26T22:25:41.428Z,9.90
2018-09-26T22:28:09.520Z,9.90
2018-09-26T22:30:37.593Z,9.80
2018-09-26T22:33:05.685Z,9.70
2018-09-26T22:35:33.774Z,9.80
2018-09-26T22:38:01.963Z,9.90
2018-09-26T22:40:30.132Z,9.90
2018-09-26T22:42:58.213Z,9.90
